Time;durP1;ratioP1;P1;durP2;ratioP2;P2;SDS_P1;SDS_P2;PMS_P1;PMS_P2;Temp;Humidity;BMP_temperature;BMP_pressure;BME280_temperature;BME280_humidity;BME280_pressure;Samples;Min_cycle;Max_cycle;Signal;HPM_P1;HPM_P2
2021/05/12 00:01:59;;;;;;;39.97;37.70;;;18.90;99.90;;;;;;5013622;28;20110;-59
2021/05/12 00:04:27;;;;;;;40.92;38.70;;;19.00;99.90;;;;;;5013415;28;20080;-57
2021/05/12 00:06:54;;;;;;;41.35;39.22;;;19.20;99.90;;;;;;5012178;28;20565;-57
2021/05/12 00:09:21;;;;;;;41.22;39.03;;;19.40;99.90;;;;;;5013430;28;20021;-56
2021/05/12 00:11:49;;;;;;;39.97;37.78;;;19.50;99.90;;;;;;5013632;28;20648;-58
2021/05/12 00:14:16;;;;;;;39.90;37.70;;;19.60;99.90;;;;;;5013287;28;20438;-56
2021/05/12 00:16:43;;;;;;;39.00;36.67;;;19.90;99.90;;;;;;5013355;28;20029;-56
2021/05/12 00:19:11;;;;;;;38.80;36.78;;;20.10;99.90;;;;;;5013161;28;20494;-57
2021/05/12 00:21:50;;;;;;;36.00;33.85;;;20.50;99.90;;;;;;5013153;28;20037;-58
2021/05/12 00:24:17;;;;;;;34.50;32.35;;;20.90;99.90;;;;;;5013296;28;20072;-58
2021/05/12 00:26:45;;;;;;;30.02;28.30;;;21.00;99.90;;;;;;5013194;28;20033;-58
2021/05/12 00:29:15;;;;;;;30.27;28.52;;;20.70;99.90;;;;;;5013092;28;20014;-57
2021/05/12 00:31:45;;;;;;;30.42;28.65;;;20.70;99.90;;;;;;5013266;28;20025;-57
2021/05/12 00:34:13;;;;;;;30.15;28.35;;;20.50;99.90;;;;;;5013213;28;20037;-57
2021/05/12 00:36:40;;;;;;;29.23;27.33;;;20.30;99.90;;;;;;5015172;28;20025;-56
2021/05/12 00:39:08;;;;;;;28.85;26.85;;;20.40;99.90;;;;;;5017148;28;20026;-54
2021/05/12 00:41:40;;;;;;;30.02;28.33;;;20.40;99.90;;;;;;5017264;28;20057;-56
2021/05/12 00:44:15;;;;;;;28.58;26.98;;;20.50;99.90;;;;;;5017337;28;20379;-56
2021/05/12 00:46:48;;;;;;;27.33;25.50;;;20.80;99.90;;;;;;5017137;28;20022;-57
2021/05/12 00:49:15;;;;;;;28.88;26.70;;;20.70;99.90;;;;;;5015873;28;20026;-57
2021/05/12 00:51:44;;;;;;;28.58;26.63;;;20.80;99.90;;;;;;5017013;28;20397;-57
2021/05/12 00:54:12;;;;;;;27.98;26.15;;;20.80;99.90;;;;;;5017065;28;20022;-57
2021/05/12 00:56:42;;;;;;;26.83;25.15;;;20.50;99.90;;;;;;5016960;28;20414;-58
2021/05/12 00:59:10;;;;;;;28.75;26.85;;;20.50;99.90;;;;;;5016875;28;20022;-57
2021/05/12 01:01:38;;;;;;;26.60;25.02;;;20.80;99.90;;;;;;5016820;28;20030;-58
2021/05/12 01:04:10;;;;;;;25.58;23.77;;;20.80;99.90;;;;;;5016872;28;20486;-54
2021/05/12 01:06:41;;;;;;;25.60;23.90;;;20.70;99.90;;;;;;5016783;28;20025;-53
2021/05/12 01:09:09;;;;;;;25.80;24.10;;;20.50;99.90;;;;;;5016751;28;20097;-54
2021/05/12 01:11:40;;;;;;;25.95;24.20;;;20.70;99.90;;;;;;5016648;28;20026;-52
2021/05/12 01:14:07;;;;;;;25.30;23.60;;;20.80;99.90;;;;;;5016674;28;20117;-56
2021/05/12 01:16:34;;;;;;;25.25;23.20;;;21.00;99.90;;;;;;5016591;28;20101;-58
2021/05/12 01:19:02;;;;;;;25.02;23.33;;;21.10;99.90;;;;;;5015097;28;20033;-58
2021/05/12 01:21:29;;;;;;;24.58;22.83;;;20.90;99.90;;;;;;5016451;28;20064;-58
2021/05/12 01:23:56;;;;;;;24.52;22.92;;;21.10;99.90;;;;;;5016447;28;20061;-58
2021/05/12 01:26:25;;;;;;;24.63;22.63;;;21.20;99.90;;;;;;5016381;28;20036;-56
2021/05/12 01:28:54;;;;;;;25.48;23.83;;;21.20;99.90;;;;;;5015020;28;20390;-54
2021/05/12 01:31:34;;;;;;;22.42;21.33;;;21.20;99.90;;;;;;5016449;28;20026;-51
2021/05/12 01:34:04;;;;;;;21.08;19.92;;;21.20;99.90;;;;;;5016432;28;20017;-57
2021/05/12 01:36:36;;;;;;;20.13;19.20;;;21.50;99.90;;;;;;5016516;28;20497;-56
2021/05/12 01:39:05;;;;;;;19.38;18.33;;;21.60;99.90;;;;;;5016169;28;20039;-54
2021/05/12 01:41:34;;;;;;;19.20;17.83;;;21.60;99.90;;;;;;5016100;28;20022;-58
2021/05/12 01:44:09;;;;;;;18.42;17.50;;;21.80;99.90;;;;;;5016076;28;20033;-58
2021/05/12 01:46:41;;;;;;;17.30;16.30;;;21.80;99.90;;;;;;5015677;28;20431;-59
2021/05/12 01:49:09;;;;;;;16.30;15.40;;;21.80;99.90;;;;;;5016026;28;20018;-58
2021/05/12 01:51:37;;;;;;;17.13;16.05;;;21.60;99.90;;;;;;5015928;28;20100;-58
2021/05/12 01:54:07;;;;;;;16.45;15.57;;;21.80;99.90;;;;;;5015947;28;20026;-57
2021/05/12 01:56:36;;;;;;;16.33;15.43;;;21.80;99.90;;;;;;5015769;28;20505;-58
2021/05/12 01:59:05;;;;;;;16.65;15.65;;;21.90;99.90;;;;;;5015777;28;20049;-58
2021/05/12 02:01:33;;;;;;;16.70;15.80;;;22.00;99.90;;;;;;5015591;28;20474;-57
2021/05/12 02:04:08;;;;;;;16.60;15.45;;;22.20;99.90;;;;;;5015684;28;20025;-58
2021/05/12 02:06:37;;;;;;;15.93;14.75;;;22.60;99.90;;;;;;5015647;28;20034;-57
2021/05/12 02:09:08;;;;;;;15.80;14.70;;;22.60;99.90;;;;;;5015777;28;20018;-58
2021/05/12 02:11:39;;;;;;;15.75;14.85;;;22.60;99.90;;;;;;5015619;28;20478;-58
2021/05/12 02:14:08;;;;;;;14.50;13.57;;;22.50;99.90;;;;;;5015524;28;20021;-58
2021/05/12 02:16:36;;;;;;;15.75;14.68;;;22.40;99.90;;;;;;5014257;28;20026;-59
2021/05/12 02:19:04;;;;;;;15.70;14.90;;;22.00;99.90;;;;;;5015384;28;20054;-59
2021/05/12 02:21:32;;;;;;;16.10;15.20;;;21.80;99.90;;;;;;5015440;28;20064;-59
2021/05/12 02:23:59;;;;;;;17.00;16.00;;;21.40;99.90;;;;;;5015512;28;20482;-58
2021/05/12 02:26:26;;;;;;;18.40;17.50;;;21.10;99.90;;;;;;5015114;28;20026;-58
2021/05/12 02:28:54;;;;;;;18.70;17.70;;;21.00;99.90;;;;;;5015101;28;20422;-58
2021/05/12 02:31:21;;;;;;;18.55;17.45;;;21.20;99.90;;;;;;5013854;28;20108;-51
2021/05/12 02:33:48;;;;;;;17.83;16.92;;;21.60;99.90;;;;;;5013949;28;20449;-60
2021/05/12 02:36:16;;;;;;;17.48;16.35;;;21.80;99.90;;;;;;5015182;28;20117;-60
2021/05/12 02:38:43;;;;;;;17.48;16.38;;;21.20;99.90;;;;;;5014997;28;20030;-59
2021/05/12 02:41:12;;;;;;;18.45;17.25;;;21.40;99.90;;;;;;5014972;28;20033;-62
2021/05/12 02:43:39;;;;;;;18.95;17.65;;;21.60;99.90;;;;;;5014879;28;20081;-61
2021/05/12 02:46:06;;;;;;;17.10;16.10;;;21.70;99.90;;;;;;5014666;28;20037;-62
2021/05/12 02:48:34;;;;;;;18.27;16.95;;;21.90;99.90;;;;;;5014911;28;20029;-61
2021/05/12 02:51:01;;;;;;;17.92;16.75;;;21.90;99.90;;;;;;5014861;28;20025;-62
2021/05/12 02:53:28;;;;;;;17.88;16.52;;;22.00;99.90;;;;;;5013573;28;20508;-62
2021/05/12 02:55:56;;;;;;;17.00;16.00;;;22.10;99.90;;;;;;5013397;28;20030;-62
2021/05/12 02:58:23;;;;;;;17.92;16.80;;;22.20;99.90;;;;;;5014006;28;20406;-61
2021/05/12 03:00:50;;;;;;;17.23;16.17;;;22.00;99.90;;;;;;5014714;28;20486;-62
2021/05/12 03:03:18;;;;;;;17.08;16.08;;;22.00;99.90;;;;;;5014656;28;20490;-62
2021/05/12 03:05:45;;;;;;;17.60;16.55;;;21.90;99.90;;;;;;5014524;28;20034;-62
2021/05/12 03:08:13;;;;;;;17.40;16.30;;;22.10;99.90;;;;;;5014542;28;20018;-62
2021/05/12 03:10:40;;;;;;;17.85;16.67;;;22.30;99.90;;;;;;5014495;28;20021;-62
2021/05/12 03:13:08;;;;;;;16.42;15.50;;;21.70;99.90;;;;;;5014546;28;20052;-62
2021/05/12 03:15:36;;;;;;;16.65;15.68;;;21.40;99.90;;;;;;5014421;28;20030;-62
2021/05/12 03:18:05;;;;;;;17.23;16.08;;;21.40;99.90;;;;;;5014331;28;20040;-62
2021/05/12 03:20:32;;;;;;;15.55;14.48;;;21.90;99.90;;;;;;5014104;28;20569;-64
2021/05/12 03:23:00;;;;;;;14.20;13.30;;;22.10;99.90;;;;;;5014244;28;20061;-62
2021/05/12 03:25:28;;;;;;;14.70;13.23;;;22.30;99.90;;;;;;5014490;28;20149;-64
2021/05/12 03:27:56;;;;;;;13.57;12.77;;;22.40;99.90;;;;;;5014271;28;20387;-62
2021/05/12 03:30:31;;;;;;;13.68;12.68;;;22.20;99.90;;;;;;5014225;28;20032;-64
2021/05/12 03:32:58;;;;;;;13.98;12.98;;;22.30;99.90;;;;;;5014209;28;20049;-63
2021/05/12 03:35:26;;;;;;;14.45;13.45;;;22.50;99.90;;;;;;5014094;28;20029;-62
2021/05/12 03:37:56;;;;;;;16.27;15.07;;;22.40;99.90;;;;;;5012937;28;20064;-62
2021/05/12 03:40:24;;;;;;;16.23;14.90;;;22.10;99.90;;;;;;5014134;28;20490;-63
2021/05/12 03:42:51;;;;;;;15.90;14.85;;;21.90;99.90;;;;;;5014041;28;20427;-62
2021/05/12 03:45:19;;;;;;;15.68;14.68;;;21.70;99.90;;;;;;5014045;28;20025;-59
2021/05/12 03:47:47;;;;;;;17.02;15.85;;;21.40;99.90;;;;;;5013896;28;20049;-63
2021/05/12 03:50:18;;;;;;;17.33;16.30;;;21.50;99.90;;;;;;5013740;28;20066;-63
2021/05/12 03:52:45;;;;;;;16.45;15.35;;;21.40;99.90;;;;;;5013814;28;20072;-64
2021/05/12 03:55:14;;;;;;;17.08;15.95;;;21.40;99.90;;;;;;5013690;28;20037;-63
2021/05/12 03:57:43;;;;;;;16.77;15.82;;;21.40;99.90;;;;;;5013787;28;20021;-65
2021/05/12 04:00:12;;;;;;;16.50;15.50;;;21.60;99.90;;;;;;5013725;28;20450;-63
2021/05/12 04:02:40;;;;;;;16.25;15.23;;;21.70;99.90;;;;;;5013672;28;20026;-61
2021/05/12 04:05:08;;;;;;;13.82;13.13;;;21.80;99.90;;;;;;5013466;28;20055;-60
2021/05/12 04:07:36;;;;;;;14.13;12.95;;;22.10;99.90;;;;;;5013529;28;20490;-61
2021/05/12 04:10:06;;;;;;;14.40;13.73;;;22.30;99.90;;;;;;5013247;28;20119;-60
2021/05/12 04:12:33;;;;;;;15.93;15.00;;;22.20;99.90;;;;;;5013537;28;20221;-59
2021/05/12 04:15:01;;;;;;;15.48;14.48;;;21.80;99.90;;;;;;5013461;28;20034;-60
2021/05/12 04:17:29;;;;;;;16.55;15.43;;;21.60;99.90;;;;;;5013412;28;20101;-60
2021/05/12 04:19:56;;;;;;;15.85;14.93;;;21.50;99.90;;;;;;5013124;28;20524;-60
2021/05/12 04:22:24;;;;;;;17.42;16.20;;;21.30;99.90;;;;;;5013488;28;20038;-59
2021/05/12 04:24:51;;;;;;;17.42;16.08;;;21.10;99.90;;;;;;5013494;28;20030;-59
2021/05/12 04:27:19;;;;;;;17.27;16.13;;;20.80;99.90;;;;;;5013312;28;20022;-59
2021/05/12 04:29:47;;;;;;;18.85;17.58;;;20.70;99.90;;;;;;5011938;28;20385;-59
2021/05/12 04:32:14;;;;;;;19.73;18.52;;;20.50;99.90;;;;;;5013277;28;20026;-59
2021/05/12 04:34:42;;;;;;;19.67;18.23;;;20.80;99.90;;;;;;5013327;28;20104;-59
2021/05/12 04:37:09;;;;;;;19.60;18.40;;;20.90;99.90;;;;;;5013239;28;20033;-57
2021/05/12 04:39:36;;;;;;;20.40;18.88;;;21.00;99.90;;;;;;5013239;28;20028;-59
2021/05/12 04:42:04;;;;;;;20.35;18.58;;;21.40;99.90;;;;;;5013127;28;20026;-59
2021/05/12 04:44:31;;;;;;;19.00;17.88;;;21.50;99.90;;;;;;5013070;28;20033;-59
2021/05/12 04:46:59;;;;;;;18.95;17.70;;;21.30;99.90;;;;;;5013100;28;20021;-60
2021/05/12 04:49:26;;;;;;;19.02;17.83;;;21.10;99.90;;;;;;5013242;28;20044;-59
2021/05/12 04:51:53;;;;;;;20.40;19.00;;;21.00;99.90;;;;;;5013126;28;20022;-59
2021/05/12 04:54:22;;;;;;;22.95;21.65;;;20.80;99.90;;;;;;5013112;28;20379;-60
2021/05/12 04:56:49;;;;;;;23.20;21.70;;;20.50;99.90;;;;;;5013131;28;20026;-59
2021/05/12 04:59:17;;;;;;;23.95;22.55;;;20.40;99.90;;;;;;5012932;28;20022;-59
2021/05/12 05:01:45;;;;;;;26.02;24.13;;;20.40;99.90;;;;;;5011789;28;20026;-60
2021/05/12 05:04:15;;;;;;;24.35;22.90;;;20.30;99.90;;;;;;5012913;28;20018;-60
2021/05/12 05:06:43;;;;;;;24.85;23.35;;;20.50;99.90;;;;;;5012966;28;20041;-61
2021/05/12 05:09:10;;;;;;;24.35;22.75;;;20.60;99.90;;;;;;5012928;28;20033;-60
2021/05/12 05:11:37;;;;;;;24.88;23.35;;;20.60;99.90;;;;;;5012928;28;20022;-60
2021/05/12 05:14:05;;;;;;;25.17;23.33;;;20.70;99.90;;;;;;4995312;28;20030;-60
2021/05/12 05:16:34;;;;;;;25.52;23.92;;;20.70;99.90;;;;;;5012836;28;20101;-60
2021/05/12 05:19:01;;;;;;;26.70;25.05;;;20.70;99.90;;;;;;5011362;28;20407;-60
2021/05/12 05:21:28;;;;;;;26.40;24.60;;;20.70;99.90;;;;;;5012683;28;20037;-59
2021/05/12 05:23:56;;;;;;;25.77;24.33;;;20.70;99.90;;;;;;5016651;28;20425;-60
2021/05/12 05:26:23;;;;;;;25.60;23.95;;;20.90;99.90;;;;;;5016550;28;20030;-59
2021/05/12 05:28:51;;;;;;;26.15;24.55;;;20.70;99.90;;;;;;5016349;28;20529;-60
2021/05/12 05:31:18;;;;;;;26.77;25.23;;;20.80;99.90;;;;;;5016371;28;20022;-59
2021/05/12 05:33:46;;;;;;;25.90;23.90;;;20.90;99.90;;;;;;5016271;28;20101;-59
2021/05/12 05:36:13;;;;;;;27.05;25.55;;;20.60;99.90;;;;;;5016288;28;20445;-60
2021/05/12 05:38:40;;;;;;;25.65;24.17;;;20.50;99.90;;;;;;5016209;28;20026;-59
2021/05/12 05:41:07;;;;;;;26.90;24.92;;;20.30;99.90;;;;;;5016316;28;20514;-59
2021/05/12 05:43:35;;;;;;;27.48;25.63;;;20.30;99.90;;;;;;5014799;28;20470;-59
2021/05/12 05:46:02;;;;;;;28.13;26.42;;;20.30;99.90;;;;;;5016144;28;20025;-59
2021/05/12 05:48:29;;;;;;;30.05;28.13;;;20.20;99.90;;;;;;5016062;28;20108;-59
2021/05/12 05:50:57;;;;;;;31.70;29.77;;;20.20;99.90;;;;;;5015935;28;20025;-59
2021/05/12 05:53:25;;;;;;;32.53;30.63;;;20.20;99.90;;;;;;5016151;28;20021;-59
2021/05/12 05:55:52;;;;;;;30.77;28.75;;;20.20;99.90;;;;;;5015925;28;20033;-60
2021/05/12 05:58:19;;;;;;;31.80;29.80;;;20.10;99.90;;;;;;5014558;28;20093;-61
2021/05/12 06:00:47;;;;;;;32.00;29.70;;;20.20;99.90;;;;;;5015788;28;20072;-60
2021/05/12 06:03:14;;;;;;;32.22;29.77;;;20.10;99.90;;;;;;5015632;28;20032;-60
2021/05/12 06:05:49;;;;;;;33.15;30.60;;;20.10;99.90;;;;;;5015324;28;20022;-60
2021/05/12 06:08:16;;;;;;;34.05;31.58;;;20.10;99.90;;;;;;5015466;28;20032;-60
2021/05/12 06:10:44;;;;;;;34.45;32.08;;;20.10;99.90;;;;;;5015447;28;20022;-60
2021/05/12 06:13:11;;;;;;;34.65;32.55;;;20.10;99.90;;;;;;5015363;28;20532;-60
2021/05/12 06:15:40;;;;;;;34.88;32.45;;;20.00;99.90;;;;;;5015229;28;20088;-60
2021/05/12 06:18:07;;;;;;;35.65;33.40;;;19.90;99.90;;;;;;5015167;28;20108;-61
2021/05/12 06:20:35;;;;;;;36.30;33.97;;;19.90;99.90;;;;;;5013821;28;20137;-60
2021/05/12 06:23:07;;;;;;;36.60;34.35;;;19.80;99.90;;;;;;5015494;28;20049;-60
2021/05/12 06:25:34;;;;;;;38.17;35.53;;;19.80;99.90;;;;;;5015106;28;20029;-60
2021/05/12 06:28:02;;;;;;;38.75;35.97;;;19.80;99.90;;;;;;5015116;28;20503;-60
2021/05/12 06:30:29;;;;;;;39.58;36.97;;;19.70;99.90;;;;;;5015203;28;20453;-60
2021/05/12 06:32:57;;;;;;;39.58;36.78;;;19.70;99.90;;;;;;5014475;28;20050;-60
2021/05/12 06:35:25;;;;;;;41.20;38.47;;;19.50;99.90;;;;;;5014670;28;20030;-60
2021/05/12 06:37:52;;;;;;;40.45;37.63;;;19.40;99.90;;;;;;5015314;28;20493;-64
2021/05/12 06:40:19;;;;;;;42.08;39.42;;;19.40;99.90;;;;;;5015083;28;20025;-59
2021/05/12 06:42:47;;;;;;;42.00;38.92;;;19.40;99.90;;;;;;5015073;28;20022;-60
2021/05/12 06:45:14;;;;;;;43.17;39.97;;;19.40;99.90;;;;;;5014822;28;20030;-63
2021/05/12 06:47:42;;;;;;;43.13;39.80;;;19.30;99.90;;;;;;5014819;28;20018;-62
2021/05/12 06:50:10;;;;;;;41.50;38.60;;;19.20;99.90;;;;;;5014861;28;20390;-61
2021/05/12 06:52:37;;;;;;;45.65;42.67;;;19.10;99.90;;;;;;5013801;28;20018;-62
2021/05/12 06:55:05;;;;;;;46.38;43.22;;;19.00;99.90;;;;;;5014698;28;20029;-62
2021/05/12 06:57:33;;;;;;;47.42;44.40;;;19.00;99.90;;;;;;5014643;28;20048;-62
2021/05/12 07:00:00;;;;;;;48.50;45.35;;;18.90;99.90;;;;;;5013212;28;20032;-61
2021/05/12 07:02:27;;;;;;;49.58;46.33;;;18.90;99.90;;;;;;5014554;28;20053;-60
2021/05/12 07:04:54;;;;;;;51.40;47.90;;;18.80;99.90;;;;;;5014437;28;20447;-62
2021/05/12 07:07:22;;;;;;;48.88;45.72;;;18.80;99.90;;;;;;5014525;28;20028;-61
2021/05/12 07:09:49;;;;;;;49.03;45.72;;;18.70;99.90;;;;;;5014486;28;20018;-61
2021/05/12 07:12:17;;;;;;;49.10;45.50;;;18.70;99.90;;;;;;5014592;28;20034;-60
2021/05/12 07:14:45;;;;;;;47.70;44.25;;;18.70;99.90;;;;;;5014406;28;20029;-61
2021/05/12 07:17:13;;;;;;;46.95;43.65;;;18.60;99.90;;;;;;5014390;28;20105;-61
2021/05/12 07:19:40;;;;;;;47.40;43.65;;;18.50;99.90;;;;;;5013990;28;20049;-61
2021/05/12 07:22:07;;;;;;;50.22;46.95;;;18.50;99.90;;;;;;5014130;28;20455;-62
2021/05/12 07:24:35;;;;;;;49.50;46.05;;;18.50;99.90;;;;;;5014103;28;20022;-61
2021/05/12 07:27:02;;;;;;;50.50;46.65;;;18.40;99.90;;;;;;5014027;28;20025;-61
2021/05/12 07:29:29;;;;;;;50.80;47.40;;;18.30;99.90;;;;;;5014042;28;20017;-62
2021/05/12 07:31:57;;;;;;;52.05;48.33;;;18.30;99.90;;;;;;5014004;28;20055;-62
2021/05/12 07:34:24;;;;;;;52.50;48.90;;;18.20;99.90;;;;;;5013336;28;20061;-61
2021/05/12 07:36:51;;;;;;;54.53;50.85;;;18.20;99.90;;;;;;5014160;28;20041;-61
2021/05/12 07:39:19;;;;;;;54.65;51.13;;;18.20;99.90;;;;;;5014012;28;20018;-61
2021/05/12 07:41:50;;;;;;;51.28;47.83;;;18.10;99.90;;;;;;5014028;28;20360;-61
2021/05/12 07:44:17;;;;;;;52.60;48.85;;;18.10;99.90;;;;;;5013627;28;20018;-61
2021/05/12 07:46:45;;;;;;;52.20;48.40;;;18.10;99.90;;;;;;5013849;28;20108;-61
2021/05/12 07:49:12;;;;;;;52.45;48.42;;;18.10;99.90;;;;;;5013813;28;20022;-61
2021/05/12 07:51:40;;;;;;;53.20;48.67;;;18.10;99.90;;;;;;5013812;28;20104;-61
2021/05/12 07:54:07;;;;;;;50.05;46.13;;;18.10;99.90;;;;;;5013813;28;20022;-62
2021/05/12 07:56:34;;;;;;;50.28;46.25;;;18.20;99.90;;;;;;5013707;28;20030;-61
2021/05/12 07:59:02;;;;;;;51.28;47.28;;;18.20;99.90;;;;;;5013568;28;20025;-61
2021/05/12 08:01:33;;;;;;;49.88;46.13;;;18.20;99.90;;;;;;5012381;28;20053;-61
2021/05/12 08:04:00;;;;;;;50.20;46.00;;;18.20;99.90;;;;;;5013509;28;20030;-61
2021/05/12 08:06:27;;;;;;;50.25;46.60;;;18.10;99.90;;;;;;5013469;28;20025;-61
2021/05/12 08:08:55;;;;;;;51.88;48.25;;;18.10;99.90;;;;;;5013543;28;20022;-60
2021/05/12 08:11:22;;;;;;;58.83;53.95;;;18.00;99.90;;;;;;5013430;28;20022;-61
2021/05/12 08:13:50;;;;;;;54.00;49.83;;;17.90;99.90;;;;;;5013338;28;20018;-61
2021/05/12 08:16:18;;;;;;;53.35;49.13;;;17.90;99.90;;;;;;5013371;28;20482;-60
2021/05/12 08:18:45;;;;;;;53.35;49.10;;;17.90;99.90;;;;;;5013437;28;20026;-61
2021/05/12 08:21:12;;;;;;;54.75;50.67;;;17.80;99.90;;;;;;5013146;28;20042;-60
2021/05/12 08:23:40;;;;;;;54.40;50.33;;;17.80;99.90;;;;;;5013372;28;20026;-60
2021/05/12 08:26:09;;;;;;;53.38;49.63;;;17.80;99.90;;;;;;5013224;28;20045;-60
2021/05/12 08:28:41;;;;;;;56.78;52.67;;;17.80;99.90;;;;;;5013102;28;20037;-59
2021/05/12 08:31:08;;;;;;;57.25;52.30;;;17.80;99.90;;;;;;5013144;28;20034;-61
2021/05/12 08:33:36;;;;;;;57.67;53.78;;;17.80;99.90;;;;;;5013213;28;20033;-60
2021/05/12 08:36:03;;;;;;;55.85;51.75;;;17.70;99.90;;;;;;5012077;28;20033;-60
2021/05/12 08:38:32;;;;;;;57.05;52.83;;;17.80;99.90;;;;;;5013326;28;20036;-60
2021/05/12 08:41:02;;;;;;;54.83;51.08;;;17.80;99.90;;;;;;5013094;28;20509;-59
2021/05/12 08:43:31;;;;;;;56.85;53.05;;;17.80;99.90;;;;;;5013468;28;20026;-60
2021/05/12 08:45:58;;;;;;;60.13;56.00;;;17.80;99.90;;;;;;5013031;28;20042;-60
2021/05/12 08:48:26;;;;;;;59.22;54.85;;;17.90;99.90;;;;;;5012962;28;20026;-59
2021/05/12 08:50:54;;;;;;;57.42;53.28;;;17.90;99.90;;;;;;5013025;28;20062;-60
2021/05/12 08:53:21;;;;;;;57.38;53.10;;;17.90;99.90;;;;;;5013143;28;20022;-60
2021/05/12 08:55:51;;;;;;;54.60;50.30;;;17.90;99.90;;;;;;5013150;28;20068;-60
2021/05/12 08:58:19;;;;;;;54.20;50.30;;;18.00;99.90;;;;;;5016464;28;20025;-60
2021/05/12 09:00:49;;;;;;;55.25;51.35;;;18.10;99.90;;;;;;5017123;28;20026;-60
2021/05/12 09:03:17;;;;;;;54.53;50.50;;;18.10;99.90;;;;;;5016918;28;20022;-61
2021/05/12 09:05:44;;;;;;;54.28;50.03;;;18.20;99.90;;;;;;5016731;28;20033;-61
2021/05/12 09:08:11;;;;;;;51.08;47.22;;;18.20;99.90;;;;;;5015387;28;20030;-60
2021/05/12 09:10:39;;;;;;;52.83;48.75;;;18.20;99.90;;;;;;5016745;28;20022;-62
2021/05/12 09:13:06;;;;;;;52.03;47.88;;;18.20;99.90;;;;;;5016748;28;20033;-61
2021/05/12 09:15:34;;;;;;;50.65;46.63;;;18.20;99.90;;;;;;5016844;28;20088;-60
2021/05/12 09:18:04;;;;;;;49.25;45.35;;;18.20;99.90;;;;;;5016714;28;20034;-61
2021/05/12 09:20:42;;;;;;;57.40;52.47;;;18.20;99.90;;;;;;5016336;28;20087;-61
2021/05/12 09:23:17;;;;;;;52.20;48.13;;;18.20;99.90;;;;;;5016763;28;20041;-61
2021/05/12 09:25:56;;;;;;;53.78;49.63;;;18.20;99.90;;;;;;5016636;28;20064;-61
2021/05/12 09:28:28;;;;;;;53.78;49.30;;;18.20;99.90;;;;;;5016557;28;20022;-61
2021/05/12 09:31:15;;;;;;;50.78;46.63;;;18.20;99.90;;;;;;5016463;28;20018;-60
2021/05/12 09:33:49;;;;;;;50.63;46.30;;;18.20;99.90;;;;;;5016352;28;20037;-61
2021/05/12 09:36:29;;;;;;;52.13;47.95;;;18.30;99.90;;;;;;5016219;28;20073;-60
2021/05/12 09:38:58;;;;;;;48.65;44.25;;;18.30;99.90;;;;;;5016187;28;20398;-60
2021/05/12 09:41:36;;;;;;;46.58;42.50;;;18.20;99.90;;;;;;5016113;28;20109;-61
2021/05/12 09:44:06;;;;;;;47.33;43.47;;;18.30;99.90;;;;;;5016254;28;20061;-61
2021/05/12 09:46:36;;;;;;;49.63;45.65;;;18.20;99.90;;;;;;5015954;28;20034;-60
2021/05/12 09:49:03;;;;;;;53.50;48.97;;;18.20;99.90;;;;;;5016038;28;20076;-61
2021/05/12 09:51:40;;;;;;;53.63;49.53;;;18.30;99.90;;;;;;5016017;28;20033;-61
2021/05/12 09:54:22;;;;;;;51.95;47.85;;;18.20;99.90;;;;;;5015938;28;20117;-61
2021/05/12 09:56:56;;;;;;;52.67;48.13;;;18.20;99.90;;;;;;5015889;28;20025;-61
2021/05/12 09:59:28;;;;;;;57.05;53.08;;;18.10;99.90;;;;;;5015801;28;20041;-63
2021/05/12 10:01:57;;;;;;;56.50;52.13;;;18.00;99.90;;;;;;5015868;28;20060;-60
2021/05/12 10:04:42;;;;;;;51.97;47.90;;;17.90;99.90;;;;;;5015643;28;20502;-60
2021/05/12 10:07:14;;;;;;;48.97;45.28;;;17.80;99.90;;;;;;5015779;28;20026;-61
2021/05/12 10:09:43;;;;;;;51.92;47.63;;;17.80;99.90;;;;;;5015580;28;20041;-63
2021/05/12 10:12:13;;;;;;;52.17;48.08;;;17.80;99.90;;;;;;5014486;28;20033;-62
2021/05/12 10:14:46;;;;;;;52.17;47.90;;;17.80;99.90;;;;;;5016008;28;20547;-64
2021/05/12 10:17:15;;;;;;;51.53;47.45;;;17.80;99.90;;;;;;5015958;28;20054;-63
2021/05/12 10:19:45;;;;;;;52.35;48.03;;;17.80;99.90;;;;;;5015586;28;20574;-63
2021/05/12 10:22:13;;;;;;;49.97;45.97;;;17.80;99.90;;;;;;5015550;28;20022;-64
2021/05/12 10:24:42;;;;;;;56.17;51.47;;;17.80;99.90;;;;;;5015467;28;20507;-62
2021/05/12 10:27:36;;;;;;;53.67;49.75;;;17.90;99.90;;;;;;5015473;28;20589;-63
2021/05/12 10:30:05;;;;;;;54.33;50.17;;;17.90;99.90;;;;;;5015207;28;20393;-63
2021/05/12 10:32:40;;;;;;;52.78;48.65;;;17.90;99.90;;;;;;5015419;28;20360;-64
2021/05/12 10:35:11;;;;;;;54.00;49.90;;;17.90;99.90;;;;;;5015379;28;20025;-63
2021/05/12 10:37:39;;;;;;;52.88;48.95;;;17.80;99.90;;;;;;5015313;28;20044;-64
2021/05/12 10:40:41;;;;;;;53.00;48.63;;;17.80;99.90;;;;;;5015234;28;20331;-64
2021/05/12 10:43:27;;;;;;;53.33;49.20;;;17.80;99.90;;;;;;5015150;28;20101;-63
2021/05/12 10:46:01;;;;;;;53.53;49.33;;;17.80;99.90;;;;;;5015035;28;20018;-66
2021/05/12 10:48:36;;;;;;;57.00;52.50;;;17.70;99.90;;;;;;5015037;28;20022;-66
2021/05/12 10:51:09;;;;;;;59.15;54.63;;;17.70;99.90;;;;;;5015135;28;20026;-66
2021/05/12 10:53:50;;;;;;;59.15;55.05;;;17.60;99.90;;;;;;5015064;28;20030;-62
2021/05/12 10:56:19;;;;;;;61.00;56.90;;;17.60;99.90;;;;;;5013558;28;20478;-66
2021/05/12 10:59:18;;;;;;;57.25;52.75;;;17.60;99.90;;;;;;5014782;28;20058;-64
2021/05/12 11:01:48;;;;;;;58.75;54.03;;;17.60;99.90;;;;;;5014804;28;20030;-63
2021/05/12 11:04:19;;;;;;;58.58;54.10;;;17.60;99.90;;;;;;5014466;28;20450;-61
2021/05/12 11:06:46;;;;;;;57.20;52.80;;;17.70;99.90;;;;;;5014694;28;20071;-62
2021/05/12 11:09:18;;;;;;;54.28;50.22;;;17.60;99.90;;;;;;5014599;28;20054;-64
2021/05/12 11:11:45;;;;;;;57.58;53.42;;;17.50;99.90;;;;;;5014633;28;20033;-62
2021/05/12 11:14:32;;;;;;;55.45;51.40;;;17.40;99.90;;;;;;5014468;28;20056;-62
2021/05/12 11:17:17;;;;;;;56.03;51.75;;;17.20;99.90;;;;;;5014806;28;20426;-67
2021/05/12 11:19:46;;;;;;;54.78;50.45;;;17.20;99.90;;;;;;5013505;28;20510;-66
2021/05/12 11:33:20;;;;;;;;;;;17.00;99.90;;;;;;5014950;28;20033;-64
2021/05/12 11:36:15;;;;;;;58.35;54.55;;;17.00;99.90;;;;;;5014303;28;19956;-65
2021/05/12 11:38:41;;;;;;;56.53;52.53;;;16.90;99.90;;;;;;5013505;28;20046;-64
2021/05/12 11:41:16;;;;;;;56.42;52.63;;;17.00;99.90;;;;;;5014290;28;20053;-65
2021/05/12 11:43:54;;;;;;;56.47;52.38;;;16.90;99.90;;;;;;5014023;28;20058;-63
2021/05/12 11:46:26;;;;;;;59.42;55.40;;;16.90;99.90;;;;;;5014130;28;20053;-64
2021/05/12 11:48:54;;;;;;;60.63;56.30;;;16.90;99.90;;;;;;5013874;28;20080;-64
2021/05/12 11:51:33;;;;;;;56.70;52.90;;;16.80;99.90;;;;;;5014081;28;20486;-64
2021/05/12 11:54:02;;;;;;;57.33;53.15;;;16.70;99.90;;;;;;5013929;28;20017;-64
2021/05/12 11:56:30;;;;;;;54.22;50.38;;;16.70;99.90;;;;;;5013803;28;20072;-65
2021/05/12 11:59:01;;;;;;;53.70;49.50;;;16.70;99.90;;;;;;5013891;28;20045;-66
2021/05/12 12:01:31;;;;;;;56.33;51.78;;;16.70;99.90;;;;;;5013735;28;20030;-65
2021/05/12 12:04:15;;;;;;;56.40;51.92;;;16.70;99.90;;;;;;5013818;28;20018;-65
2021/05/12 12:06:43;;;;;;;60.17;55.75;;;16.70;99.90;;;;;;5013635;28;20030;-65
2021/05/12 12:09:12;;;;;;;55.17;51.20;;;16.70;99.90;;;;;;5013883;28;20021;-65
2021/05/12 12:11:41;;;;;;;56.78;52.50;;;16.60;99.90;;;;;;5013655;28;20024;-63
2021/05/12 12:14:09;;;;;;;59.65;54.67;;;16.60;99.90;;;;;;5012311;28;20036;-63
2021/05/12 12:16:38;;;;;;;58.45;54.08;;;16.50;99.90;;;;;;5013443;28;20026;-62
2021/05/12 12:19:10;;;;;;;56.72;52.13;;;16.50;99.90;;;;;;5013203;28;20054;-62
2021/05/12 12:21:39;;;;;;;60.08;55.67;;;16.50;99.90;;;;;;5013359;28;20120;-62
2021/05/12 12:24:22;;;;;;;61.75;56.63;;;16.50;99.90;;;;;;5013319;28;20041;-62
2021/05/12 12:26:54;;;;;;;61.78;56.65;;;16.50;99.90;;;;;;5013235;28;20108;-63
2021/05/12 12:29:30;;;;;;;56.65;52.20;;;16.50;99.90;;;;;;5013295;28;20026;-64
2021/05/12 12:32:06;;;;;;;57.13;52.28;;;16.50;99.90;;;;;;5013378;28;20030;-63
2021/05/12 12:34:40;;;;;;;56.47;52.05;;;16.40;99.90;;;;;;5013259;28;20025;-63
2021/05/12 12:37:14;;;;;;;60.72;56.15;;;16.40;99.90;;;;;;5013560;28;20529;-63
2021/05/12 12:40:09;;;;;;;60.72;55.90;;;16.40;99.90;;;;;;5013279;28;20018;-63
2021/05/12 12:42:49;;;;;;;62.38;57.92;;;16.30;99.90;;;;;;5012074;28;20045;-63
2021/05/12 12:45:24;;;;;;;61.17;56.35;;;16.20;99.90;;;;;;5013245;28;20080;-64
2021/05/12 12:47:56;;;;;;;62.35;57.88;;;16.20;99.90;;;;;;5013297;28;20406;-63
2021/05/12 12:50:25;;;;;;;71.10;66.00;;;16.20;99.90;;;;;;5013242;28;20018;-63
2021/05/12 12:52:53;;;;;;;67.32;62.42;;;16.10;99.90;;;;;;5013331;28;20022;-65